Time;durP1;ratioP1;P1;durP2;ratioP2;P2;SDS_P1;SDS_P2;PMS_P1;PMS_P2;Temp;Humidity;BMP_temperature;BMP_pressure;BME280_temperature;BME280_humidity;BME280_pressure;Samples;Min_cycle;Max_cycle;Signal;HPM_P1;HPM_P2
2021/08/11 00:00:10;;;;;;;1999.90;999.90;;;;;;;21.58;79.99;98330.34;5096404;28;20043;-68
2021/08/11 00:02:37;;;;;;;1999.90;999.90;;;;;;;21.49;80.84;98322.28;5094666;28;20628;-68
2021/08/11 00:05:04;;;;;;;1999.90;999.90;;;;;;;21.52;80.60;98315.88;5094318;28;20070;-68
2021/08/11 00:07:31;;;;;;;1999.90;999.90;;;;;;;21.52;80.78;98323.50;5101859;28;20100;-68
2021/08/11 00:09:57;;;;;;;1999.90;999.90;;;;;;;21.48;80.63;98323.47;5095557;28;20048;-68
2021/08/11 00:12:24;;;;;;;1999.90;999.90;;;;;;;21.54;80.16;98329.53;5094491;28;20044;-68
2021/08/11 00:14:51;;;;;;;1999.90;999.90;;;;;;;21.46;80.30;98321.06;5094652;28;20169;-68
2021/08/11 00:17:18;;;;;;;1999.90;999.90;;;;;;;21.40;80.28;98328.28;5095493;28;20093;-68
2021/08/11 00:19:44;;;;;;;1999.90;999.90;;;;;;;21.46;79.88;98329.50;5100851;28;20052;-68
2021/08/11 00:22:11;;;;;;;1999.90;999.90;;;;;;;21.53;79.35;98327.94;5094617;28;20494;-68
2021/08/11 00:24:37;;;;;;;1999.90;999.90;;;;;;;21.56;78.97;98333.56;5095136;28;20089;-68
2021/08/11 00:27:04;;;;;;;1999.90;999.90;;;;;;;21.46;79.46;98332.31;5093727;28;20052;-68
2021/08/11 00:29:30;;;;;;;1999.90;999.90;;;;;;;21.46;79.58;98332.31;5093910;28;20326;-66
2021/08/11 00:31:57;;;;;;;1999.90;999.90;;;;;;;21.44;79.93;98331.91;5094651;28;20093;-66
2021/08/11 00:34:24;;;;;;;1999.90;999.90;;;;;;;21.21;80.60;98326.63;5094846;28;20048;-66
2021/08/11 00:36:50;;;;;;;1999.90;999.90;;;;;;;21.11;80.75;98333.06;5093675;28;20044;-66
2021/08/11 00:39:17;;;;;;;1999.90;999.90;;;;;;;20.98;81.79;98331.81;5097805;28;20095;-66
2021/08/11 00:41:46;;;;;;;1999.90;999.90;;;;;;;21.15;81.51;98333.84;5094928;28;20040;-67
2021/08/11 00:44:14;;;;;;;1999.90;999.90;;;;;;;21.26;80.62;98336.72;5093393;28;20048;-67
2021/08/11 00:46:45;;;;;;;1999.90;999.90;;;;;;;21.20;80.42;98339.09;5093874;28;20051;-67
2021/08/11 00:49:15;;;;;;;1999.90;999.90;;;;;;;21.19;80.77;98347.94;5093845;28;20044;-67
2021/08/11 00:51:43;;;;;;;1999.90;999.90;;;;;;;21.28;80.30;98337.91;5100544;28;20047;-66
2021/08/11 00:54:11;;;;;;;1999.90;999.90;;;;;;;21.24;80.51;98341.91;5099721;28;20044;-67
2021/08/11 00:56:45;;;;;;;1999.90;999.90;;;;;;;21.04;81.22;98345.06;5093803;28;20055;-67
2021/08/11 00:59:14;;;;;;;1999.90;999.90;;;;;;;21.07;81.05;98341.47;5094611;28;20066;-66
2021/08/11 01:01:41;;;;;;;1999.90;999.90;;;;;;;21.02;80.93;98338.22;5093141;28;20109;-66
2021/08/11 01:04:10;;;;;;;1999.90;999.90;;;;;;;21.03;81.07;98340.63;5092006;28;20055;-66
2021/08/11 01:06:39;;;;;;;1999.90;999.90;;;;;;;20.97;81.46;98339.41;5078477;28;20097;-66
2021/08/11 01:09:05;;;;;;;1999.90;999.90;;;;;;;20.98;81.57;98337.44;5091770;28;20040;-67
2021/08/11 01:11:33;;;;;;;1999.90;999.90;;;;;;;20.92;82.03;98328.56;5094254;28;20097;-66
2021/08/11 01:14:01;;;;;;;1999.90;999.90;;;;;;;20.90;82.18;98331.78;5093663;28;20048;-67
2021/08/11 01:16:27;;;;;;;1999.90;999.90;;;;;;;20.74;82.49;98329.28;5093780;28;20060;-66
2021/08/11 01:18:54;;;;;;;1999.90;999.90;;;;;;;20.76;82.63;98326.88;5093070;28;20044;-67
2021/08/11 01:21:31;;;;;;;1999.90;999.90;;;;;;;20.91;81.93;98327.75;5093116;28;20090;-67
2021/08/11 01:24:25;;;;;;;1999.90;999.90;;;;;;;20.79;82.54;98324.50;5104405;28;20051;-67
2021/08/11 01:27:00;;;;;;;1999.90;999.90;;;;;;;20.69;82.93;98320.44;5093746;28;20076;-67
2021/08/11 01:29:37;;;;;;;1999.90;999.90;;;;;;;20.66;83.17;98327.63;5095202;28;20044;-67
2021/08/11 01:32:14;;;;;;;1999.90;999.90;;;;;;;20.68;82.80;98325.25;5104539;28;20043;-66
2021/08/11 01:34:45;;;;;;;1999.90;999.90;;;;;;;20.70;82.35;98333.28;5092895;28;20124;-66
2021/08/11 01:37:24;;;;;;;1999.90;999.90;;;;;;;20.71;81.93;98338.50;5093544;28;20125;-67
2021/08/11 01:39:55;;;;;;;1999.90;999.90;;;;;;;20.69;82.00;98326.88;5093371;28;20048;-66
2021/08/11 01:42:36;;;;;;;1999.90;999.90;;;;;;;20.18;83.52;98330.56;5093321;28;20036;-66
2021/08/11 01:45:09;;;;;;;1999.90;999.90;;;;;;;19.88;85.15;98325.94;5092861;28;20051;-67
2021/08/11 01:47:39;;;;;;;1999.90;999.90;;;;;;;19.97;84.91;98329.19;5092229;28;20109;-67
2021/08/11 01:50:08;;;;;;;1999.90;999.90;;;;;;;19.70;85.62;98329.34;5092477;28;20048;-66
2021/08/11 01:52:40;;;;;;;1999.90;999.90;;;;;;;19.90;85.28;98325.53;5097000;28;20040;-66
2021/08/11 01:55:09;;;;;;;1999.90;999.90;;;;;;;20.03;84.37;98330.44;5092516;28;20043;-66
2021/08/11 01:57:43;;;;;;;1999.90;999.90;;;;;;;20.01;84.04;98332.06;5091392;28;20059;-66
2021/08/11 02:00:10;;;;;;;1999.90;999.90;;;;;;;20.01;83.42;98332.84;5092413;28;20055;-67
2021/08/11 02:02:39;;;;;;;1999.90;999.90;;;;;;;20.03;83.24;98338.88;5105128;28;20509;-67
2021/08/11 02:05:10;;;;;;;1999.90;999.90;;;;;;;20.01;83.14;98323.63;5091897;28;20101;-67
2021/08/11 02:07:39;;;;;;;1999.90;999.90;;;;;;;20.04;82.88;98325.66;5091968;28;20437;-67
2021/08/11 02:10:07;;;;;;;1999.90;999.90;;;;;;;19.91;83.40;98322.34;5125552;27;20101;-67
2021/08/11 02:12:34;;;;;;;1999.90;999.90;;;;;;;19.94;83.09;98326.38;5092799;28;20048;-67
2021/08/11 02:15:01;;;;;;;1999.90;999.90;;;;;;;19.90;83.05;98329.13;5092991;28;20096;-67
2021/08/11 02:17:29;;;;;;;1999.90;999.90;;;;;;;19.91;82.99;98336.38;5092954;28;20052;-67
2021/08/11 02:19:55;;;;;;;1999.90;999.90;;;;;;;19.80;83.52;98339.09;5092979;28;20478;-67
2021/08/11 02:22:22;;;;;;;1999.90;999.90;;;;;;;19.85;83.56;98340.75;5091928;28;20044;-67
2021/08/11 02:24:48;;;;;;;1999.90;999.90;;;;;;;19.92;83.39;98343.59;5093333;28;20433;-67
2021/08/11 02:27:18;;;;;;;1999.90;999.90;;;;;;;19.87;82.98;98343.94;5092439;28;20391;-67
2021/08/11 02:29:56;;;;;;;1999.90;999.90;;;;;;;19.77;83.40;98333.41;5092548;28;20113;-67
2021/08/11 02:32:45;;;;;;;1999.90;999.90;;;;;;;19.64;84.01;98336.53;5091679;28;20079;-66
2021/08/11 02:35:23;;;;;;;1999.90;999.90;;;;;;;19.76;84.14;98343.03;5091734;28;20044;-67
2021/08/11 02:37:55;;;;;;;1999.90;999.90;;;;;;;19.76;84.03;98348.66;5086353;28;20052;-67
2021/08/11 02:40:36;;;;;;;1999.90;999.90;;;;;;;19.75;83.51;98349.84;5092716;28;20093;-67
2021/08/11 02:43:28;;;;;;;1999.90;999.90;;;;;;;19.77;82.96;98351.06;5091486;28;20433;-67
2021/08/11 02:45:59;;;;;;;1999.90;999.90;;;;;;;19.66;83.05;98350.16;5091450;28;20048;-67
2021/08/11 02:48:27;;;;;;;1999.90;999.90;;;;;;;19.36;83.95;98343.47;5092750;28;20051;-67
2021/08/11 02:50:54;;;;;;;1999.90;999.90;;;;;;;19.14;85.04;98336.00;5092390;28;20044;-67
2021/08/11 02:53:23;;;;;;;1999.90;999.90;;;;;;;19.16;84.96;98328.06;5091901;28;20040;-67
2021/08/11 02:55:50;;;;;;;1999.90;999.90;;;;;;;19.18;84.88;98334.06;5092418;28;20047;-67
2021/08/11 02:58:19;;;;;;;1999.90;999.90;;;;;;;19.15;84.99;98337.63;5092790;28;20055;-67
2021/08/11 03:00:48;;;;;;;1999.90;999.90;;;;;;;19.03;84.96;98337.91;5091183;28;20468;-68
2021/08/11 03:03:16;;;;;;;1999.90;999.90;;;;;;;18.98;85.05;98331.44;5093663;28;20040;-68
2021/08/11 03:05:43;;;;;;;1999.90;999.90;;;;;;;19.17;84.04;98336.06;5091763;28;20052;-68
2021/08/11 03:08:10;;;;;;;1999.90;999.90;;;;;;;19.19;84.19;98330.09;5092687;28;20097;-67
2021/08/11 03:10:39;;;;;;;1999.90;999.90;;;;;;;18.84;84.80;98334.03;5102054;28;20334;-67
2021/08/11 03:13:09;;;;;;;1999.90;999.90;;;;;;;18.53;86.69;98324.06;5095800;28;20417;-67
2021/08/11 03:15:36;;;;;;;1999.90;999.90;;;;;;;18.60;86.53;98336.16;5137994;27;20497;-68
2021/08/11 03:18:03;;;;;;;1999.90;999.90;;;;;;;18.69;85.81;98338.66;5098301;28;20127;-68
2021/08/11 03:20:31;;;;;;;1999.90;999.90;;;;;;;18.83;85.11;98338.03;5095418;28;20052;-68
2021/08/11 03:22:57;;;;;;;1999.90;999.90;;;;;;;19.02;84.06;98347.50;5096662;28;20066;-68
2021/08/11 03:25:24;;;;;;;1999.90;999.90;;;;;;;19.05;84.02;98360.75;5095235;28;20048;-67
2021/08/11 03:27:50;;;;;;;1999.90;999.90;;;;;;;19.05;84.26;98383.16;5096259;28;20105;-67
2021/08/11 03:30:17;;;;;;;1999.90;999.90;;;;;;;18.97;84.51;98388.66;5078663;28;20110;-67
2021/08/11 03:32:43;;;;;;;1999.90;999.90;;;;;;;18.99;84.20;98391.88;5094672;28;20083;-67
2021/08/11 03:35:10;;;;;;;1999.90;999.90;;;;;;;19.00;84.03;98393.50;5094866;28;20110;-68
2021/08/11 03:37:36;;;;;;;1999.90;999.90;;;;;;;19.05;83.83;98391.56;5095340;28;20051;-68
2021/08/11 03:40:04;;;;;;;1999.90;999.90;;;;;;;18.87;84.82;98378.13;5096461;28;20206;-68
2021/08/11 03:42:30;;;;;;;1999.90;999.90;;;;;;;18.86;84.51;98379.34;5098256;28;20074;-68
2021/08/11 03:44:57;;;;;;;1999.90;999.90;;;;;;;18.78;85.55;98377.59;5095449;28;20039;-68
2021/08/11 03:47:23;;;;;;;1999.90;999.90;;;;;;;18.89;84.70;98380.53;5096114;28;20097;-68
2021/08/11 03:49:50;;;;;;;1999.90;999.90;;;;;;;18.56;85.52;98380.06;5094644;28;20429;-68
2021/08/11 03:52:17;;;;;;;1999.90;999.90;;;;;;;18.34;87.06;98362.19;5094345;28;20051;-68
2021/08/11 03:54:43;;;;;;;1999.90;999.90;;;;;;;18.31;86.94;98360.16;5109850;28;20094;-68
2021/08/11 03:57:10;;;;;;;1999.90;999.90;;;;;;;18.56;85.99;98370.88;5094793;28;20112;-68
2021/08/11 03:59:37;;;;;;;1999.90;999.90;;;;;;;18.80;85.01;98376.03;5095013;28;20044;-67
2021/08/11 04:02:04;;;;;;;1999.90;999.90;;;;;;;18.57;85.78;98364.91;5095244;28;20048;-68
2021/08/11 04:04:31;;;;;;;1999.90;999.90;;;;;;;18.81;85.56;98362.81;5095636;28;20087;-68
2021/08/11 04:06:57;;;;;;;1999.90;999.90;;;;;;;19.06;84.57;98368.75;5094466;28;20048;-68
2021/08/11 04:09:24;;;;;;;1999.90;999.90;;;;;;;19.14;84.52;98381.69;5094585;28;20056;-68
2021/08/11 04:11:50;;;;;;;1999.90;999.90;;;;;;;19.26;83.96;98377.00;5088679;28;20092;-68
2021/08/11 04:14:17;;;;;;;1999.90;999.90;;;;;;;19.32;83.45;98376.28;5091407;28;20047;-68
2021/08/11 04:16:44;;;;;;;1999.90;999.90;;;;;;;19.50;83.66;98387.69;5090681;28;20048;-68
2021/08/11 04:19:10;;;;;;;1999.90;999.90;;;;;;;19.78;83.20;98386.34;5097227;28;20059;-68
2021/08/11 04:21:37;;;;;;;1999.90;999.90;;;;;;;19.85;82.06;98382.81;5095096;28;20505;-68
2021/08/11 04:24:04;;;;;;;1999.90;999.90;;;;;;;19.59;83.76;98381.75;5090856;28;20597;-68
2021/08/11 04:26:30;;;;;;;1999.90;999.90;;;;;;;19.97;82.82;98379.72;5102266;28;20048;-68
2021/08/11 04:28:57;;;;;;;1999.90;999.90;;;;;;;20.09;82.05;98380.63;5091656;28;20105;-68
2021/08/11 04:31:24;;;;;;;1999.90;999.90;;;;;;;20.54;81.18;98386.94;5089876;28;20087;-68
2021/08/11 04:33:50;;;;;;;1999.90;999.90;;;;;;;20.99;78.95;98390.44;5091346;28;20044;-68
2021/08/11 04:36:17;;;;;;;1999.90;999.90;;;;;;;21.35;77.90;98378.47;5092039;28;20078;-68
2021/08/11 04:38:43;;;;;;;1999.90;999.90;;;;;;;21.78;75.97;98382.22;5089917;28;20047;-68
2021/08/11 04:41:13;;;;;;;1999.90;999.90;;;;;;;21.97;74.90;98380.22;5090356;28;20117;-68
2021/08/11 04:43:40;;;;;;;1999.90;999.90;;;;;;;22.16;74.20;98388.25;5089881;28;20069;-67
2021/08/11 04:46:06;;;;;;;1999.90;999.90;;;;;;;22.27;74.13;98393.09;5090213;28;20055;-68
2021/08/11 04:48:33;;;;;;;1999.90;999.90;;;;;;;22.46;73.35;98377.81;5090247;28;20052;-68
2021/08/11 04:50:59;;;;;;;1999.90;999.90;;;;;;;22.78;72.08;98389.00;5091000;28;20685;-68
2021/08/11 04:53:26;;;;;;;1999.90;999.90;;;;;;;22.90;71.48;98384.16;5091259;28;20089;-68
2021/08/11 04:55:52;;;;;;;1999.90;999.90;;;;;;;23.09;71.41;98389.31;5090435;28;20047;-68
2021/08/11 04:58:19;;;;;;;1999.90;999.90;;;;;;;23.27;70.96;98394.06;5098569;28;20581;-68
2021/08/11 05:00:45;;;;;;;1999.90;999.90;;;;;;;23.53;70.07;98393.53;5090085;28;20076;-68
2021/08/11 05:03:16;;;;;;;1999.90;999.90;;;;;;;23.49;70.28;98395.59;5092690;28;20048;-67
2021/08/11 05:05:43;;;;;;;1999.90;999.90;;;;;;;23.75;69.54;98390.59;5100392;28;20083;-67
2021/08/11 05:08:10;;;;;;;1999.90;999.90;;;;;;;23.76;69.47;98400.66;5089732;28;20334;-67
2021/08/11 05:10:37;;;;;;;1999.90;999.90;;;;;;;23.89;68.81;98404.63;5090803;28;20055;-67
2021/08/11 05:13:03;;;;;;;1999.90;999.90;;;;;;;23.76;69.34;98400.66;5090142;28;20044;-67
2021/08/11 05:15:30;;;;;;;1999.90;999.90;;;;;;;23.84;69.28;98396.56;5091030;28;20594;-67
2021/08/11 05:17:56;;;;;;;1999.90;999.90;;;;;;;23.96;69.43;98397.31;5091208;28;20502;-67
2021/08/11 05:20:23;;;;;;;1999.90;999.90;;;;;;;24.19;68.85;98394.72;5089308;28;20117;-67
2021/08/11 05:22:49;;;;;;;1999.90;999.90;;;;;;;24.21;67.63;98395.09;5089999;28;20089;-67
2021/08/11 05:25:16;;;;;;;1999.90;999.90;;;;;;;24.36;67.82;98392.16;5090367;28;20047;-67
2021/08/11 05:27:44;;;;;;;1999.90;999.90;;;;;;;24.37;68.99;98396.56;5089605;28;20056;-67
2021/08/11 05:30:11;;;;;;;1999.90;999.90;;;;;;;24.40;67.96;98398.53;5089463;28;20121;-67
2021/08/11 05:32:38;;;;;;;1999.90;999.90;;;;;;;24.39;68.31;98397.75;5089273;28;20051;-67
2021/08/11 05:35:05;;;;;;;1999.90;999.90;;;;;;;24.77;67.47;98405.47;5089645;28;20048;-67
2021/08/11 05:37:31;;;;;;;1999.90;999.90;;;;;;;24.77;66.86;98405.47;5089374;28;20121;-67
2021/08/11 05:39:58;;;;;;;1999.90;999.90;;;;;;;24.66;67.46;98411.25;5089876;28;20048;-68
2021/08/11 05:42:24;;;;;;;1999.90;999.90;;;;;;;24.75;67.20;98419.25;5089523;28;20047;-68
2021/08/11 05:44:51;;;;;;;1999.90;999.90;;;;;;;24.91;67.25;98419.47;5089144;28;20102;-68
2021/08/11 05:47:17;;;;;;;1999.90;999.90;;;;;;;24.98;66.47;98421.41;5089632;28;20325;-68
2021/08/11 05:49:44;;;;;;;1999.90;999.90;;;;;;;24.84;66.32;98421.56;5090659;28;20092;-68
2021/08/11 05:52:11;;;;;;;1999.90;999.90;;;;;;;24.36;66.66;98420.41;5089725;28;20104;-68
2021/08/11 05:54:38;;;;;;;1999.90;999.90;;;;;;;24.20;68.07;98432.22;5089104;28;20113;-68
2021/08/11 05:57:06;;;;;;;1999.90;999.90;;;;;;;24.16;66.94;98423.78;5090158;28;20066;-68
2021/08/11 05:59:35;;;;;;;1999.90;999.90;;;;;;;23.93;67.92;98427.19;5088563;28;20164;-67
2021/08/11 06:02:01;;;;;;;1999.90;999.90;;;;;;;23.59;69.89;98429.78;5088702;28;20044;-67
2021/08/11 06:04:32;;;;;;;1999.90;999.90;;;;;;;24.01;68.76;98422.28;5092645;28;20048;-67
2021/08/11 06:06:59;;;;;;;1999.90;999.90;;;;;;;23.94;67.40;98434.44;5090890;28;20078;-67
2021/08/11 06:09:25;;;;;;;1999.90;999.90;;;;;;;24.29;66.65;98434.59;5092713;28;20083;-67
2021/08/11 06:11:52;;;;;;;1999.90;999.90;;;;;;;24.53;66.27;98429.91;5093724;28;20466;-67
2021/08/11 06:14:20;;;;;;;1999.90;999.90;;;;;;;23.96;67.09;98436.84;5089349;28;20097;-67
2021/08/11 06:16:47;;;;;;;1999.90;999.90;;;;;;;24.02;65.17;98438.81;5092250;28;20069;-66
2021/08/11 06:19:13;;;;;;;1999.90;999.90;;;;;;;24.47;63.87;98438.03;5098892;28;20066;-67
2021/08/11 06:21:40;;;;;;;1999.90;999.90;;;;;;;24.81;61.07;98445.03;5088482;28;20091;-67
2021/08/11 06:24:06;;;;;;;1999.90;999.90;;;;;;;24.66;61.60;98442.34;5088517;28;20052;-67
2021/08/11 06:26:35;;;;;;;1999.90;999.90;;;;;;;24.66;62.08;98439.50;5088182;28;20086;-67
2021/08/11 06:29:02;;;;;;;1999.90;999.90;;;;;;;25.17;60.66;98444.63;5090435;28;20104;-69
2021/08/11 06:31:29;;;;;;;1999.90;999.90;;;;;;;25.22;62.53;98438.50;5090232;28;20475;-66
2021/08/11 06:33:56;;;;;;;1999.90;999.90;;;;;;;25.08;61.04;98439.47;5088604;28;20044;-67
2021/08/11 06:36:22;;;;;;;1999.90;999.90;;;;;;;25.52;61.64;98443.41;5088884;28;20101;-67
2021/08/11 06:38:49;;;;;;;1999.90;999.90;;;;;;;25.95;59.15;98454.13;5089529;28;20339;-67
2021/08/11 06:41:16;;;;;;;1999.90;999.90;;;;;;;25.87;58.51;98451.84;5088275;28;20079;-67
2021/08/11 06:43:47;;;;;;;1999.90;999.90;;;;;;;25.67;59.29;98453.31;5093067;28;20048;-68
2021/08/11 06:46:14;;;;;;;1999.90;999.90;;;;;;;25.86;59.67;98439.72;5088626;28;20078;-67
2021/08/11 06:48:41;;;;;;;1999.90;999.90;;;;;;;25.34;59.29;98451.31;5092254;28;20572;-67
2021/08/11 06:51:09;;;;;;;1999.90;999.90;;;;;;;25.62;58.21;98458.63;5091493;28;20137;-68
2021/08/11 06:53:36;;;;;;;1999.90;999.90;;;;;;;24.70;60.29;98456.47;5088480;28;20101;-68
2021/08/11 06:56:03;;;;;;;1999.90;999.90;;;;;;;24.95;61.69;98450.53;5088355;28;20092;-68
2021/08/11 06:58:30;;;;;;;1999.90;999.90;;;;;;;25.38;58.33;98454.91;5087950;28;20378;-67
2021/08/11 07:00:59;;;;;;;1999.90;999.90;;;;;;;24.93;58.63;98452.97;5088547;28;20073;-67
2021/08/11 07:03:26;;;;;;;1999.90;999.90;;;;;;;25.05;57.92;98449.59;5089332;28;20058;-67
2021/08/11 07:05:53;;;;;;;1999.90;999.90;;;;;;;25.38;57.74;98463.41;5088467;28;20357;-67
2021/08/11 07:08:20;;;;;;;1999.90;999.90;;;;;;;25.38;56.88;98467.06;5089121;28;20133;-67
2021/08/11 07:10:48;;;;;;;1999.90;999.90;;;;;;;25.78;57.63;98466.53;5088814;28;20455;-67
2021/08/11 07:13:15;;;;;;;1999.90;999.90;;;;;;;26.21;56.85;98465.91;5087752;28;20073;-67
2021/08/11 07:15:42;;;;;;;1999.90;999.90;;;;;;;26.31;57.35;98467.78;5087771;28;20108;-66
2021/08/11 07:18:09;;;;;;;1999.90;999.90;;;;;;;25.81;58.35;98466.50;5088663;28;20048;-67
2021/08/11 07:20:36;;;;;;;1999.90;999.90;;;;;;;25.88;58.92;98468.41;5088558;28;20044;-67
2021/08/11 07:23:02;;;;;;;1999.90;999.90;;;;;;;25.46;59.25;98473.41;5087872;28;20339;-68
2021/08/11 07:25:29;;;;;;;1999.90;999.90;;;;;;;25.95;59.15;98470.34;5087981;28;20052;-67
2021/08/11 07:27:56;;;;;;;1999.90;999.90;;;;;;;26.82;58.33;98464.91;5089271;28;20153;-67
2021/08/11 07:30:22;;;;;;;1999.90;999.90;;;;;;;26.40;58.30;98474.94;5093675;28;20300;-67
2021/08/11 07:32:49;;;;;;;1999.90;999.90;;;;;;;26.53;57.87;98470.25;5097362;28;20052;-68
2021/08/11 07:35:16;;;;;;;1999.90;999.90;;;;;;;26.08;59.18;98473.41;5105432;28;20047;-67
2021/08/11 07:37:50;;;;;;;1999.90;999.90;;;;;;;26.52;58.34;98469.44;5089114;28;20109;-67
2021/08/11 07:40:18;;;;;;;1999.90;999.90;;;;;;;25.99;60.09;98468.25;5087724;28;20056;-67
2021/08/11 07:42:45;;;;;;;1999.90;999.90;;;;;;;26.61;58.21;98459.59;5088380;28;20093;-67
2021/08/11 07:45:13;;;;;;;1999.90;999.90;;;;;;;26.22;59.58;98467.53;5088633;28;20076;-67
2021/08/11 07:47:41;;;;;;;1999.90;999.90;;;;;;;26.20;62.00;98464.28;5087502;28;20406;-67
2021/08/11 07:50:09;;;;;;;1999.90;999.90;;;;;;;26.75;58.20;98464.22;5088355;28;20097;-66
2021/08/11 07:52:35;;;;;;;1999.90;999.90;;;;;;;26.67;57.45;98472.06;5088476;28;20133;-66
2021/08/11 07:55:02;;;;;;;1999.90;999.90;;;;;;;26.89;57.94;98464.78;5088948;28;20044;-67
2021/08/11 07:57:28;;;;;;;1999.90;999.90;;;;;;;26.96;57.07;98471.53;5096483;28;20064;-67
2021/08/11 07:59:55;;;;;;;1999.90;999.90;;;;;;;27.04;52.94;98479.50;5098945;28;20103;-67
2021/08/11 08:02:21;;;;;;;1999.90;999.90;;;;;;;27.04;56.43;98482.31;5092144;28;20089;-67
2021/08/11 08:04:48;;;;;;;1999.90;999.90;;;;;;;27.32;53.71;98487.88;5091023;28;20047;-67
2021/08/11 08:07:15;;;;;;;1999.90;999.90;;;;;;;27.70;53.83;98488.31;5105311;28;20437;-67
2021/08/11 08:09:41;;;;;;;1999.90;999.90;;;;;;;27.48;52.28;98487.19;5091610;28;20055;-67
2021/08/11 08:12:08;;;;;;;1999.90;999.90;;;;;;;27.30;54.80;98485.47;5091547;28;20071;-67
2021/08/11 08:14:35;;;;;;;1999.90;999.90;;;;;;;26.93;56.46;98490.25;5091056;28;20044;-67
2021/08/11 08:17:02;;;;;;;1999.90;999.90;;;;;;;26.86;56.72;98494.00;5091213;28;20052;-67
2021/08/11 08:19:28;;;;;;;1999.90;999.90;;;;;;;26.98;55.83;98488.94;5091491;28;20417;-67
2021/08/11 08:21:55;;;;;;;1999.90;999.90;;;;;;;27.63;56.45;98494.19;5095084;28;20436;-67
2021/08/11 08:24:22;;;;;;;1999.90;999.90;;;;;;;27.02;55.45;98490.47;5091529;28;20106;-67
2021/08/11 08:26:48;;;;;;;1999.90;999.90;;;;;;;26.32;58.27;98491.22;5090838;28;20114;-67
2021/08/11 08:29:15;;;;;;;1999.90;999.90;;;;;;;25.22;60.44;98498.72;5090631;28;20082;-66
2021/08/11 08:31:41;;;;;;;1999.90;999.90;;;;;;;26.39;58.62;98490.34;5090801;28;20402;-67
2021/08/11 08:34:08;;;;;;;1999.90;999.90;;;;;;;26.70;55.80;98496.72;5095415;28;20043;-67
2021/08/11 08:36:35;;;;;;;1999.90;999.90;;;;;;;27.24;55.75;98495.72;5093398;28;20463;-67
2021/08/11 08:39:02;;;;;;;1999.90;999.90;;;;;;;26.67;55.38;98492.72;5090676;28;20051;-67
2021/08/11 08:41:29;;;;;;;1999.90;999.90;;;;;;;26.58;55.44;98494.47;5090804;28;20055;-67
2021/08/11 08:43:56;;;;;;;1999.90;999.90;;;;;;;27.31;52.25;98491.97;5090544;28;20120;-67
2021/08/11 08:46:23;;;;;;;1999.90;999.90;;;;;;;27.06;55.66;98499.72;5090239;28;20452;-66
2021/08/11 08:48:50;;;;;;;1999.90;999.90;;;;;;;27.67;53.20;98494.09;5073851;28;20114;-66
2021/08/11 08:51:21;;;;;;;1999.90;999.90;;;;;;;27.53;51.92;98495.19;5091153;28;20048;-66
2021/08/11 08:53:48;;;;;;;1999.90;999.90;;;;;;;28.13;50.92;98495.13;5091383;28;20313;-66
2021/08/11 08:56:16;;;;;;;1999.90;999.90;;;;;;;28.68;49.39;98492.59;5091001;28;20388;-66
2021/08/11 08:58:43;;;;;;;1999.90;999.90;;;;;;;27.67;50.21;98494.88;5091432;28;20105;-66
2021/08/11 09:01:09;;;;;;;1999.90;999.90;;;;;;;27.42;50.93;98489.72;5090753;28;20052;-66
2021/08/11 09:03:36;;;;;;;1999.90;999.90;;;;;;;27.13;51.36;98483.81;5099898;28;20075;-66
2021/08/11 09:06:03;;;;;;;1999.90;999.90;;;;;;;28.02;51.89;98481.16;5093244;28;20706;-66
2021/08/11 09:08:30;;;;;;;1999.90;999.90;;;;;;;28.49;52.22;98490.63;5090628;28;20437;-66
2021/08/11 09:10:56;;;;;;;1999.90;999.90;;;;;;;28.84;48.74;98486.09;5089755;28;20395;-66
2021/08/11 09:13:23;;;;;;;1999.90;999.90;;;;;;;28.87;49.00;98487.25;5090526;28;20441;-67
2021/08/11 09:15:54;;;;;;;1999.90;999.90;;;;;;;28.91;47.32;98485.09;5090256;28;20101;-66
2021/08/11 09:18:23;;;;;;;1999.90;999.90;;;;;;;28.82;45.63;98482.88;5089464;28;20371;-67
2021/08/11 09:21:11;;;;;;;1999.90;999.90;;;;;;;28.90;47.37;98486.38;5090047;28;20094;-66
2021/08/11 09:23:40;;;;;;;1999.90;999.90;;;;;;;28.67;46.85;98487.34;5090541;28;20334;-66
2021/08/11 09:26:12;;;;;;;1999.90;999.90;;;;;;;28.97;44.76;98486.16;5089120;28;20044;-66
2021/08/11 09:28:45;;;;;;;1999.90;999.90;;;;;;;28.70;46.15;98484.41;5090517;28;20044;-66
2021/08/11 09:31:22;;;;;;;1999.90;999.90;;;;;;;28.41;47.24;98490.78;5090220;28;20373;-66
2021/08/11 09:33:50;;;;;;;1999.90;999.90;;;;;;;27.24;47.88;98490.88;5089761;28;20058;-66
2021/08/11 09:36:17;;;;;;;1999.90;999.90;;;;;;;27.59;48.09;98493.44;5088790;28;20160;-66
2021/08/11 09:39:04;;;;;;;1999.90;999.90;;;;;;;28.30;46.76;98484.59;5089576;28;20052;-66
2021/08/11 09:41:34;;;;;;;1999.90;999.90;;;;;;;28.64;44.79;98486.19;5090047;28;20667;-66
2021/08/11 09:44:06;;;;;;;1999.90;999.90;;;;;;;26.25;51.97;98482.88;5089441;28;20346;-66
2021/08/11 09:46:33;;;;;;;1999.90;999.90;;;;;;;27.04;51.32;98482.31;5088801;28;20510;-66
2021/08/11 09:49:00;;;;;;;1999.90;999.90;;;;;;;27.11;48.17;98483.41;5089651;28;20071;-66
2021/08/11 09:51:27;;;;;;;1999.90;999.90;;;;;;;27.81;45.47;98490.13;5089652;28;20052;-66
2021/08/11 09:53:53;;;;;;;1999.90;999.90;;;;;;;28.07;45.39;98486.31;5088940;28;20047;-66
2021/08/11 09:56:31;;;;;;;1999.90;999.90;;;;;;;27.70;44.36;98482.63;5088634;28;20059;-66
2021/08/11 09:59:04;;;;;;;1999.90;999.90;;;;;;;27.98;48.04;98488.97;5089170;28;20050;-66
2021/08/11 10:01:31;;;;;;;1999.90;999.90;;;;;;;28.95;46.37;98491.50;5089261;28;20052;-66
2021/08/11 10:04:07;;;;;;;1999.90;999.90;;;;;;;28.86;44.63;98491.34;5093658;28;20132;-66
2021/08/11 10:06:35;;;;;;;1999.90;999.90;;;;;;;29.73;42.66;98487.72;5100798;28;20051;-66
2021/08/11 10:09:17;;;;;;;1999.90;999.90;;;;;;;30.34;41.93;98496.44;5090150;28;20059;-67
2021/08/11 10:12:04;;;;;;;1999.90;999.90;;;;;;;29.92;40.10;98507.94;5088206;28;20052;-66
2021/08/11 10:14:35;;;;;;;1999.90;999.90;;;;;;;27.83;43.63;98490.50;5088630;28;20083;-66
2021/08/11 10:17:03;;;;;;;1999.90;999.90;;;;;;;28.64;40.89;98494.72;5090948;28;20402;-66
2021/08/11 10:19:32;;;;;;;1999.90;999.90;;;;;;;29.40;41.32;98499.25;5094393;28;20077;-67
2021/08/11 10:22:07;;;;;;;1999.90;999.90;;;;;;;28.77;43.16;98498.44;5086857;28;20494;-66
2021/08/11 10:24:36;;;;;;;1999.90;999.90;;;;;;;29.20;41.47;98504.25;5077583;28;20048;-66
2021/08/11 10:27:09;;;;;;;1999.90;999.90;;;;;;;28.68;43.42;98503.19;5089028;28;20153;-67
2021/08/11 10:29:36;;;;;;;1999.90;999.90;;;;;;;28.79;43.38;98495.97;5089164;28;20143;-66
2021/08/11 10:32:03;;;;;;;1999.90;999.90;;;;;;;29.80;41.21;98498.88;5087967;28;20052;-66
2021/08/11 10:34:30;;;;;;;1999.90;999.90;;;;;;;30.25;41.69;98500.00;5088541;28;20120;-66
2021/08/11 10:36:59;;;;;;;1999.90;999.90;;;;;;;29.63;41.86;98497.38;5089378;28;20047;-67
2021/08/11 10:39:28;;;;;;;1999.90;999.90;;;;;;;29.37;43.48;98496.50;5088275;28;20082;-67
2021/08/11 10:42:00;;;;;;;1999.90;999.90;;;;;;;29.99;41.21;98499.97;5089038;28;20124;-67
2021/08/11 10:44:28;;;;;;;1999.90;999.90;;;;;;;29.14;44.10;98498.31;5089229;28;20117;-66
2021/08/11 10:46:58;;;;;;;1999.90;999.90;;;;;;;28.97;44.79;98497.53;5087940;28;20075;-66
2021/08/11 10:49:29;;;;;;;1999.90;999.90;;;;;;;29.55;44.79;98490.28;5087448;28;20051;-66
2021/08/11 10:52:13;;;;;;;1999.90;999.90;;;;;;;30.17;45.97;98495.75;5078892;28;20051;-67
2021/08/11 10:54:57;;;;;;;1999.90;999.90;;;;;;;30.59;40.60;98495.63;5092824;28;20044;-66
2021/08/11 10:57:36;;;;;;;1999.90;999.90;;;;;;;30.49;43.64;98497.59;5087611;28;20101;-66
2021/08/11 11:00:10;;;;;;;1999.90;999.90;;;;;;;30.80;43.98;98487.59;5088189;28;20418;-66